الصفحة الرئيسية
METAR-TAF:

METAR-TAF

مطار :

Eros Airport

ويندهوك, ناميبيا

دائرة عرض: 22-36-44S, خط طول: 017-04-50E, ارتفاع: 1699 متر

مراقبة الطقس الحالي

تاريخ ووقت الإصدار 3ساعات و 19 دقيقة قبل الساعة 05:00UTC
رياح هادئة
درجة الحرارة 16°درجة مئوية
الرطوبة 34%
ضغط 1025 hPa
الرؤية 10 كم أو أكثر
الغيوم لا تقل 1500 م ولا وجود لمزنة ركامية السحاب الأسود

METAR: FYWE 190500Z 00000KT CAVOK 16/00 Q1025

زمن: 09:19 (08:19 UTC)

توقعات

تاريخ ووقت الإصدار 3ساعات و 19 دقيقة قبل الساعة 05:00UTC
التوقعات صالحة من19 الساعة 06 UTC إلى 19 الساعة 15 UTC
ريح 3 عقدة من الجنوب
الرؤية 10 كم أو أكثر
الغيوم لا تقل 1500 م ولا وجود لمزنة ركامية السحاب الأسود
أصبح
من 19 الساعة 08 UTC إلى 19 الساعة 10 UTC
ريح 13 عقدة من الشمال
الرؤية 10 كم أو أكثر
غيوم متفرقة على ارتفاع 5000 قدم

TAF: FYWE 190500Z 1906/1915 17003KT CAVOK BECMG 1908/1910 36013KT 9999 SCT050

أرصاد الطقس والتوقعات من أكثر من 4000 مطار (تقارير الطقس للمطار METAR والتنبؤ بالطقس بالمطارTAF).

المحطات المتاحة هي النقط الصفراء والحمراء على الخريطة.

حرك المؤشر فوق النقطة لمعرفة اسم المحطة.

ثم انقر لمعرفة أرصاد وتوقعات الطقس.

لتغيير الخارطة: اضغط على الأزرار الخضراء مع رمز الصليب الأسود للتكبير. على الزر الأخضر مع شرطة للتصغير، أو على الأسهم الخضراء للخرائط المجاورة.


METAR-TAF: